Rogers, AR

2:58 AM CDT on April 02, 2015 (GMT -0500)
War Eagle River | | Change Station
CLOSE
Current Station
Personal Weather Station
Location: Rogers, AR
Elevation: 1299 ft
Nearby Weather Stations

Elev 1299 ft 36.25 °N, 93.96 °W | Updated 9 seconds ago

Clear
Clear
64.8 °F
Feels Like 64.8 °F
N
5.8
Wind Variable Wind from SSW
Gusts 7.4 mph

Today
High -- | Low -- °F
--% Chance of Precip.
Yesterday
High -- | Low -- °F
Precip. -- in
7:00 AM 7:38 PM
Waxing Gibbous, 96% visible
Pressure 29.77 in
Visibility 10.0 miles
Clouds Clear
Dew Point 60 °F
Humidity 85%
Rainfall 0.00 in
Snow Depth Not available.
UV 0.0 out of 12
Pollen 10.40 out of 12
Air Quality Not available.
Flu Activity Not available.
METAR KROG 020657Z AUTO 18012KT 10SM CLR 18/15 A2980 RMK AO2 SLP080 T01780150 TSNO

More Conditions Fewer Conditions

Pressure 29.77 in
Visibility 10.0 miles
Clouds Clear
Dew Point 60 °F
Humidity 85%
Rainfall 0.00 in
Snow Depth Not available.
UV 0.0 out of 12
Pollen 10.40 out of 12
Air Quality Not available.
Flu Activity Not available.
METAR KROG 020657Z AUTO 18012KT 10SM CLR 18/15 A2980 RMK AO2 SLP080 T01780150 TSNO

More Conditions Fewer Conditions

Nowcast | as of 1:59 am CDT on April 2, 2015

At 2 am...weather radar indicated scattered showers and thunderstorms over far western Osage and Pawnee counties...generally west of a line from Grainola to Cleveland...moving east at 20 mph. Through 3 am...scattered showers and thunderstorms will continue eastward across portions of Osage...Pawnee...and northern creek counties. Wind gusts to 50 mph and nickel size hail are possible.

×

10-Day Weather Forecast

Almanac

Astronomy

Apr. 02, 2015 Rise Set
Actual Time
Civil Twilight
Nautical Twilight
Astronomical Twilight
Moon
Length of Visible Light
Length of Day
Tomorrow will be .
, % of the Moon is Illuminated

Today's Extremes

State Highs State Lows

Community

WunderPhotos

Upload Photos

1,810,206 photos uploaded!

WunderBlogs® & News

Nearby

Air Quality

  Air Quality AQ Index Pollutant
Not available.

Snow Depth

Station Depth Elevation

Earthquake Activity

City Distance Mag. Time & Date
Minimum magnitude displayed is 2.5.

Coastal Water Temperatures

Place Temperature

Stations

Nearby Weather Stations

Station Location Temp. Windchill Dew Point Humidity Wind Precip. Elev Updated Type